sensor_id;sensor_type;location;lat;lon;timestamp;temperature;humidity
13245;DHT22;6689;53.400;12.486;2022-07-11T00:01:56;15.60;1.00
13245;DHT22;6689;53.400;12.486;2022-07-11T00:04:28;15.70;1.00
13245;DHT22;6689;53.400;12.486;2022-07-11T00:07:00;15.60;1.00
13245;DHT22;6689;53.400;12.486;2022-07-11T00:09:28;15.50;1.00
13245;DHT22;6689;53.400;12.486;2022-07-11T00:12:00;15.40;1.00
13245;DHT22;6689;53.400;12.486;2022-07-11T00:14:29;15.50;1.00
13245;DHT22;6689;53.400;12.486;2022-07-11T00:17:10;15.40;1.00
13245;DHT22;6689;53.400;12.486;2022-07-11T00:19:42;15.40;1.00
13245;DHT22;6689;53.400;12.486;2022-07-11T00:22:12;15.40;1.00
13245;DHT22;6689;53.400;12.486;2022-07-11T00:24:41;15.30;1.00
13245;DHT22;6689;53.400;12.486;2022-07-11T00:27:11;15.30;1.50
13245;DHT22;6689;53.400;12.486;2022-07-11T00:29:41;15.10;9.40
13245;DHT22;6689;53.400;12.486;2022-07-11T00:32:11;15.20;1.00
13245;DHT22;6689;53.400;12.486;2022-07-11T00:34:40;15.20;3.30
13245;DHT22;6689;53.400;12.486;2022-07-11T00:37:08;15.20;1.00
13245;DHT22;6689;53.400;12.486;2022-07-11T00:39:41;15.20;1.00
13245;DHT22;6689;53.400;12.486;2022-07-11T00:42:17;15.20;1.00
13245;DHT22;6689;53.400;12.486;2022-07-11T00:44:46;15.30;11.10
13245;DHT22;6689;53.400;12.486;2022-07-11T00:47:15;15.20;6.50
13245;DHT22;6689;53.400;12.486;2022-07-11T00:49:52;15.20;19.00
13245;DHT22;6689;53.400;12.486;2022-07-11T00:52:24;15.00;26.70
13245;DHT22;6689;53.400;12.486;2022-07-11T00:54:54;15.00;25.40
13245;DHT22;6689;53.400;12.486;2022-07-11T00:57:25;14.90;44.90
13245;DHT22;6689;53.400;12.486;2022-07-11T00:59:55;15.00;33.60
13245;DHT22;6689;53.400;12.486;2022-07-11T01:02:27;15.00;34.00
13245;DHT22;6689;53.400;12.486;2022-07-11T01:04:54;14.90;40.80
13245;DHT22;6689;53.400;12.486;2022-07-11T01:07:24;14.90;40.00
13245;DHT22;6689;53.400;12.486;2022-07-11T01:09:56;14.90;31.30
13245;DHT22;6689;53.400;12.486;2022-07-11T01:12:29;14.80;53.90
13245;DHT22;6689;53.400;12.486;2022-07-11T01:15:01;14.80;56.00
13245;DHT22;6689;53.400;12.486;2022-07-11T01:17:35;14.80;75.20
13245;DHT22;6689;53.400;12.486;2022-07-11T01:20:03;14.70;53.80
13245;DHT22;6689;53.400;12.486;2022-07-11T01:22:43;14.70;62.00
13245;DHT22;6689;53.400;12.486;2022-07-11T01:25:19;14.70;88.50
13245;DHT22;6689;53.400;12.486;2022-07-11T01:27:58;14.60;99.90
13245;DHT22;6689;53.400;12.486;2022-07-11T01:30:42;14.60;99.90
13245;DHT22;6689;53.400;12.486;2022-07-11T01:33:12;14.60;99.90
13245;DHT22;6689;53.400;12.486;2022-07-11T01:35:43;14.70;99.90
13245;DHT22;6689;53.400;12.486;2022-07-11T01:38:14;14.70;99.90
13245;DHT22;6689;53.400;12.486;2022-07-11T01:40:46;14.70;99.90
13245;DHT22;6689;53.400;12.486;2022-07-11T01:43:17;14.50;99.90
13245;DHT22;6689;53.400;12.486;2022-07-11T01:45:51;14.50;99.90
13245;DHT22;6689;53.400;12.486;2022-07-11T01:48:25;14.50;99.90
13245;DHT22;6689;53.400;12.486;2022-07-11T01:50:53;14.50;99.90
13245;DHT22;6689;53.400;12.486;2022-07-11T01:53:35;14.50;99.90
13245;DHT22;6689;53.400;12.486;2022-07-11T01:56:08;14.50;99.90
13245;DHT22;6689;53.400;12.486;2022-07-11T01:58:39;14.40;99.90
13245;DHT22;6689;53.400;12.486;2022-07-11T02:01:08;14.40;99.90
13245;DHT22;6689;53.400;12.486;2022-07-11T02:03:42;14.40;99.90
13245;DHT22;6689;53.400;12.486;2022-07-11T02:06:11;14.40;99.90
13245;DHT22;6689;53.400;12.486;2022-07-11T02:08:41;14.30;99.90
13245;DHT22;6689;53.400;12.486;2022-07-11T02:11:13;14.20;99.90
13245;DHT22;6689;53.400;12.486;2022-07-11T02:13:43;14.20;99.90
13245;DHT22;6689;53.400;12.486;2022-07-11T02:16:22;14.30;99.90
13245;DHT22;6689;53.400;12.486;2022-07-11T02:18:50;14.30;99.90
13245;DHT22;6689;53.400;12.486;2022-07-11T02:21:18;14.10;99.90
13245;DHT22;6689;53.400;12.486;2022-07-11T02:23:54;14.10;99.90
13245;DHT22;6689;53.400;12.486;2022-07-11T02:26:27;14.00;99.90
13245;DHT22;6689;53.400;12.486;2022-07-11T02:29:02;14.00;99.90
13245;DHT22;6689;53.400;12.486;2022-07-11T02:31:31;14.00;99.90
13245;DHT22;6689;53.400;12.486;2022-07-11T02:34:01;14.00;99.90
13245;DHT22;6689;53.400;12.486;2022-07-11T02:36:28;13.90;99.90
13245;DHT22;6689;53.400;12.486;2022-07-11T02:38:57;13.80;99.90
13245;DHT22;6689;53.400;12.486;2022-07-11T02:41:38;13.90;99.90
13245;DHT22;6689;53.400;12.486;2022-07-11T02:44:07;13.70;99.90
13245;DHT22;6689;53.400;12.486;2022-07-11T02:46:37;13.80;99.90
13245;DHT22;6689;53.400;12.486;2022-07-11T02:49:05;13.80;99.90
13245;DHT22;6689;53.400;12.486;2022-07-11T02:51:33;13.80;99.90
13245;DHT22;6689;53.400;12.486;2022-07-11T02:54:06;13.80;99.90
13245;DHT22;6689;53.400;12.486;2022-07-11T02:56:41;13.80;99.90
13245;DHT22;6689;53.400;12.486;2022-07-11T02:59:10;13.80;99.90
13245;DHT22;6689;53.400;12.486;2022-07-11T03:01:39;13.80;99.90
13245;DHT22;6689;53.400;12.486;2022-07-11T03:04:13;13.70;99.90
13245;DHT22;6689;53.400;12.486;2022-07-11T03:06:45;13.70;99.90
13245;DHT22;6689;53.400;12.486;2022-07-11T03:09:26;13.80;99.90
13245;DHT22;6689;53.400;12.486;2022-07-11T03:11:57;13.70;99.90
13245;DHT22;6689;53.400;12.486;2022-07-11T03:14:27;13.80;99.90
13245;DHT22;6689;53.400;12.486;2022-07-11T03:16:55;13.80;99.90
13245;DHT22;6689;53.400;12.486;2022-07-11T03:19:22;13.80;99.90
13245;DHT22;6689;53.400;12.486;2022-07-11T03:21:57;13.70;99.90
13245;DHT22;6689;53.400;12.486;2022-07-11T03:24:27;13.70;99.90
13245;DHT22;6689;53.400;12.486;2022-07-11T03:27:02;13.80;99.90
13245;DHT22;6689;53.400;12.486;2022-07-11T03:29:33;13.80;99.90
13245;DHT22;6689;53.400;12.486;2022-07-11T03:32:03;13.90;99.90
13245;DHT22;6689;53.400;12.486;2022-07-11T03:34:33;13.90;99.90
13245;DHT22;6689;53.400;12.486;2022-07-11T03:37:05;13.70;99.90
13245;DHT22;6689;53.400;12.486;2022-07-11T03:39:33;13.80;99.90
13245;DHT22;6689;53.400;12.486;2022-07-11T03:42:04;13.80;99.90
13245;DHT22;6689;53.400;12.486;2022-07-11T03:44:38;13.80;99.90
13245;DHT22;6689;53.400;12.486;2022-07-11T03:47:09;13.90;99.90
13245;DHT22;6689;53.400;12.486;2022-07-11T03:49:38;13.90;99.90
13245;DHT22;6689;53.400;12.486;2022-07-11T03:52:07;13.90;99.90
13245;DHT22;6689;53.400;12.486;2022-07-11T03:54:37;13.80;99.90
13245;DHT22;6689;53.400;12.486;2022-07-11T03:57:08;13.90;99.90
13245;DHT22;6689;53.400;12.486;2022-07-11T03:59:43;13.90;99.90
13245;DHT22;6689;53.400;12.486;2022-07-11T04:02:13;13.90;99.90
13245;DHT22;6689;53.400;12.486;2022-07-11T04:04:46;13.90;99.90
13245;DHT22;6689;53.400;12.486;2022-07-11T04:07:13;13.80;99.90
13245;DHT22;6689;53.400;12.486;2022-07-11T04:09:42;13.90;99.90
13245;DHT22;6689;53.400;12.486;2022-07-11T04:12:15;13.90;99.90
13245;DHT22;6689;53.400;12.486;2022-07-11T04:14:44;13.90;99.90
13245;DHT22;6689;53.400;12.486;2022-07-11T04:17:13;13.90;99.90
13245;DHT22;6689;53.400;12.486;2022-07-11T04:19:43;13.90;99.90
13245;DHT22;6689;53.400;12.486;2022-07-11T04:22:12;13.90;99.90
13245;DHT22;6689;53.400;12.486;2022-07-11T04:24:39;13.90;99.90
13245;DHT22;6689;53.400;12.486;2022-07-11T04:27:08;14.00;99.90
13245;DHT22;6689;53.400;12.486;2022-07-11T04:29:39;13.90;99.90
13245;DHT22;6689;53.400;12.486;2022-07-11T04:32:09;14.10;99.90
13245;DHT22;6689;53.400;12.486;2022-07-11T04:34:37;14.30;99.90
13245;DHT22;6689;53.400;12.486;2022-07-11T04:37:06;14.40;99.90
13245;DHT22;6689;53.400;12.486;2022-07-11T04:39:44;14.60;99.90
13245;DHT22;6689;53.400;12.486;2022-07-11T04:42:15;14.90;99.90
13245;DHT22;6689;53.400;12.486;2022-07-11T04:44:47;15.20;99.90
13245;DHT22;6689;53.400;12.486;2022-07-11T04:47:15;15.50;99.90
13245;DHT22;6689;53.400;12.486;2022-07-11T04:49:50;15.90;99.90
13245;DHT22;6689;53.400;12.486;2022-07-11T04:52:22;16.10;99.90
13245;DHT22;6689;53.400;12.486;2022-07-11T04:54:54;16.00;99.90
13245;DHT22;6689;53.400;12.486;2022-07-11T04:57:32;16.30;99.90
13245;DHT22;6689;53.400;12.486;2022-07-11T05:00:21;16.50;99.90
13245;DHT22;6689;53.400;12.486;2022-07-11T05:02:49;16.70;99.90
13245;DHT22;6689;53.400;12.486;2022-07-11T05:05:19;16.90;99.90
13245;DHT22;6689;53.400;12.486;2022-07-11T05:07:54;16.60;99.90
13245;DHT22;6689;53.400;12.486;2022-07-11T05:10:24;16.90;99.90
13245;DHT22;6689;53.400;12.486;2022-07-11T05:12:53;16.80;99.90
13245;DHT22;6689;53.400;12.486;2022-07-11T05:15:29;17.00;99.90
13245;DHT22;6689;53.400;12.486;2022-07-11T05:17:59;17.20;99.90
13245;DHT22;6689;53.400;12.486;2022-07-11T05:20:27;17.20;99.90
13245;DHT22;6689;53.400;12.486;2022-07-11T05:22:54;17.30;99.90
13245;DHT22;6689;53.400;12.486;2022-07-11T05:25:25;17.50;99.90
13245;DHT22;6689;53.400;12.486;2022-07-11T05:27:53;17.50;99.90
13245;DHT22;6689;53.400;12.486;2022-07-11T05:30:34;17.60;99.90
13245;DHT22;6689;53.400;12.486;2022-07-11T05:33:02;17.60;99.90
13245;DHT22;6689;53.400;12.486;2022-07-11T05:35:33;17.70;99.90
13245;DHT22;6689;53.400;12.486;2022-07-11T05:38:01;17.70;73.80
13245;DHT22;6689;53.400;12.486;2022-07-11T05:40:36;17.90;99.90
13245;DHT22;6689;53.400;12.486;2022-07-11T05:43:07;17.90;99.90
13245;DHT22;6689;53.400;12.486;2022-07-11T05:45:38;17.90;99.90
13245;DHT22;6689;53.400;12.486;2022-07-11T05:48:08;18.00;99.90
13245;DHT22;6689;53.400;12.486;2022-07-11T05:50:38;18.20;87.90
13245;DHT22;6689;53.400;12.486;2022-07-11T05:53:07;18.00;99.90
13245;DHT22;6689;53.400;12.486;2022-07-11T05:55:39;18.20;99.90
13245;DHT22;6689;53.400;12.486;2022-07-11T05:58:09;18.20;97.10
13245;DHT22;6689;53.400;12.486;2022-07-11T06:00:39;18.20;99.90
13245;DHT22;6689;53.400;12.486;2022-07-11T06:03:08;18.20;99.90
13245;DHT22;6689;53.400;12.486;2022-07-11T06:05:37;18.20;55.40
13245;DHT22;6689;53.400;12.486;2022-07-11T06:08:09;17.90;62.60
13245;DHT22;6689;53.400;12.486;2022-07-11T06:10:55;18.20;57.10
13245;DHT22;6689;53.400;12.486;2022-07-11T06:13:25;18.30;99.90
13245;DHT22;6689;53.400;12.486;2022-07-11T06:15:54;18.40;72.70
13245;DHT22;6689;53.400;12.486;2022-07-11T06:18:24;18.50;83.70
13245;DHT22;6689;53.400;12.486;2022-07-11T06:20:54;18.70;55.10
13245;DHT22;6689;53.400;12.486;2022-07-11T06:23:31;19.00;53.00
13245;DHT22;6689;53.400;12.486;2022-07-11T06:26:00;19.20;37.60
13245;DHT22;6689;53.400;12.486;2022-07-11T06:28:29;19.30;15.10
13245;DHT22;6689;53.400;12.486;2022-07-11T06:30:59;19.50;66.70
13245;DHT22;6689;53.400;12.486;2022-07-11T06:33:26;19.20;67.40
13245;DHT22;6689;53.400;12.486;2022-07-11T06:36:06;19.30;53.70
13245;DHT22;6689;53.400;12.486;2022-07-11T06:38:35;19.20;32.50
13245;DHT22;6689;53.400;12.486;2022-07-11T06:41:04;19.20;55.80
13245;DHT22;6689;53.400;12.486;2022-07-11T06:43:35;19.30;42.70
13245;DHT22;6689;53.400;12.486;2022-07-11T06:46:05;19.40;45.50
13245;DHT22;6689;53.400;12.486;2022-07-11T06:48:39;19.40;25.80
13245;DHT22;6689;53.400;12.486;2022-07-11T06:51:08;19.60;37.90
13245;DHT22;6689;53.400;12.486;2022-07-11T06:53:36;19.60;30.00
13245;DHT22;6689;53.400;12.486;2022-07-11T06:56:08;19.80;27.70
13245;DHT22;6689;53.400;12.486;2022-07-11T06:58:40;19.90;27.90
13245;DHT22;6689;53.400;12.486;2022-07-11T07:01:10;19.70;11.90
13245;DHT22;6689;53.400;12.486;2022-07-11T07:03:51;19.70;1.00
13245;DHT22;6689;53.400;12.486;2022-07-11T07:06:20;19.80;22.50
13245;DHT22;6689;53.400;12.486;2022-07-11T07:08:56;20.00;20.60
13245;DHT22;6689;53.400;12.486;2022-07-11T07:11:28;19.90;12.20
13245;DHT22;6689;53.400;12.486;2022-07-11T07:13:56;20.00;4.60
13245;DHT22;6689;53.400;12.486;2022-07-11T07:16:26;20.40;36.00
13245;DHT22;6689;53.400;12.486;2022-07-11T07:18:56;20.40;36.00
13245;DHT22;6689;53.400;12.486;2022-07-11T07:21:26;20.60;1.00
13245;DHT22;6689;53.400;12.486;2022-07-11T07:23:55;20.90;1.00
13245;DHT22;6689;53.400;12.486;2022-07-11T07:26:25;20.80;1.00
13245;DHT22;6689;53.400;12.486;2022-07-11T07:28:58;20.90;1.00
13245;DHT22;6689;53.400;12.486;2022-07-11T07:31:35;21.00;1.00
13245;DHT22;6689;53.400;12.486;2022-07-11T07:34:15;20.90;1.00
13245;DHT22;6689;53.400;12.486;2022-07-11T07:36:45;21.10;1.00
13245;DHT22;6689;53.400;12.486;2022-07-11T07:39:16;21.40;1.00
13245;DHT22;6689;53.400;12.486;2022-07-11T07:41:50;21.50;1.00
13245;DHT22;6689;53.400;12.486;2022-07-11T07:44:20;21.60;1.00
13245;DHT22;6689;53.400;12.486;2022-07-11T07:46:54;21.70;1.00
13245;DHT22;6689;53.400;12.486;2022-07-11T07:49:22;21.60;1.00
13245;DHT22;6689;53.400;12.486;2022-07-11T07:51:55;21.80;1.00
13245;DHT22;6689;53.400;12.486;2022-07-11T07:54:26;21.90;1.00
13245;DHT22;6689;53.400;12.486;2022-07-11T07:56:56;22.00;1.00
13245;DHT22;6689;53.400;12.486;2022-07-11T07:59:26;22.20;1.00
13245;DHT22;6689;53.400;12.486;2022-07-11T08:01:58;22.30;1.00
13245;DHT22;6689;53.400;12.486;2022-07-11T08:04:24;22.20;1.00
13245;DHT22;6689;53.400;12.486;2022-07-11T08:06:53;22.30;1.00
13245;DHT22;6689;53.400;12.486;2022-07-11T08:09:24;22.30;1.00
13245;DHT22;6689;53.400;12.486;2022-07-11T08:11:54;22.60;1.00
13245;DHT22;6689;53.400;12.486;2022-07-11T08:14:23;22.50;1.00
13245;DHT22;6689;53.400;12.486;2022-07-11T08:16:53;22.50;1.00
13245;DHT22;6689;53.400;12.486;2022-07-11T08:19:25;22.50;1.00
13245;DHT22;6689;53.400;12.486;2022-07-11T08:21:56;22.50;1.00
13245;DHT22;6689;53.400;12.486;2022-07-11T08:24:25;22.50;1.00
13245;DHT22;6689;53.400;12.486;2022-07-11T08:27:01;22.70;1.00
13245;DHT22;6689;53.400;12.486;2022-07-11T08:29:31;23.00;1.00
13245;DHT22;6689;53.400;12.486;2022-07-11T08:32:01;23.20;1.00
13245;DHT22;6689;53.400;12.486;2022-07-11T08:34:31;23.40;1.00
13245;DHT22;6689;53.400;12.486;2022-07-11T08:37:01;23.60;1.00
13245;DHT22;6689;53.400;12.486;2022-07-11T08:39:34;23.80;1.00
13245;DHT22;6689;53.400;12.486;2022-07-11T08:42:04;24.00;1.00
13245;DHT22;6689;53.400;12.486;2022-07-11T08:44:34;23.90;1.00
13245;DHT22;6689;53.400;12.486;2022-07-11T08:47:16;24.00;1.00
13245;DHT22;6689;53.400;12.486;2022-07-11T08:49:59;24.00;1.00
13245;DHT22;6689;53.400;12.486;2022-07-11T08:52:29;24.00;1.00
13245;DHT22;6689;53.400;12.486;2022-07-11T08:54:59;24.00;1.00
13245;DHT22;6689;53.400;12.486;2022-07-11T08:57:28;24.30;1.00
13245;DHT22;6689;53.400;12.486;2022-07-11T09:00:01;24.20;1.00
13245;DHT22;6689;53.400;12.486;2022-07-11T09:02:33;23.80;1.00
13245;DHT22;6689;53.400;12.486;2022-07-11T09:05:05;23.70;1.00
13245;DHT22;6689;53.400;12.486;2022-07-11T09:07:44;23.40;1.00
13245;DHT22;6689;53.400;12.486;2022-07-11T09:10:13;23.00;1.00
13245;DHT22;6689;53.400;12.486;2022-07-11T09:13:01;23.20;1.00
13245;DHT22;6689;53.400;12.486;2022-07-11T09:15:34;23.20;1.00
13245;DHT22;6689;53.400;12.486;2022-07-11T09:18:30;23.60;1.00
13245;DHT22;6689;53.400;12.486;2022-07-11T09:21:06;23.70;1.00
13245;DHT22;6689;53.400;12.486;2022-07-11T09:23:54;23.50;1.00
13245;DHT22;6689;53.400;12.486;2022-07-11T09:26:43;23.80;1.00
13245;DHT22;6689;53.400;12.486;2022-07-11T09:29:15;23.80;1.00
13245;DHT22;6689;53.400;12.486;2022-07-11T09:31:45;24.00;1.00
13245;DHT22;6689;53.400;12.486;2022-07-11T09:34:18;24.20;1.00
13245;DHT22;6689;53.400;12.486;2022-07-11T09:36:49;24.30;1.00
13245;DHT22;6689;53.400;12.486;2022-07-11T09:39:20;24.50;1.00
13245;DHT22;6689;53.400;12.486;2022-07-11T09:41:51;24.50;1.00
13245;DHT22;6689;53.400;12.486;2022-07-11T09:44:25;24.60;1.00
13245;DHT22;6689;53.400;12.486;2022-07-11T09:46:57;24.40;1.00
13245;DHT22;6689;53.400;12.486;2022-07-11T09:49:32;24.20;1.00
13245;DHT22;6689;53.400;12.486;2022-07-11T09:52:12;24.30;1.00
13245;DHT22;6689;53.400;12.486;2022-07-11T09:54:57;24.50;1.00
13245;DHT22;6689;53.400;12.486;2022-07-11T09:57:30;24.60;1.00
13245;DHT22;6689;53.400;12.486;2022-07-11T09:59:59;24.60;1.00
13245;DHT22;6689;53.400;12.486;2022-07-11T10:02:30;24.70;1.00
13245;DHT22;6689;53.400;12.486;2022-07-11T10:04:59;24.90;1.00
13245;DHT22;6689;53.400;12.486;2022-07-11T10:07:30;24.80;1.00
13245;DHT22;6689;53.400;12.486;2022-07-11T10:10:04;25.00;1.00
13245;DHT22;6689;53.400;12.486;2022-07-11T10:12:35;24.70;1.00
13245;DHT22;6689;53.400;12.486;2022-07-11T10:15:05;24.30;1.00
13245;DHT22;6689;53.400;12.486;2022-07-11T10:17:52;24.60;1.00
13245;DHT22;6689;53.400;12.486;2022-07-11T10:20:31;24.80;1.00
13245;DHT22;6689;53.400;12.486;2022-07-11T10:23:16;25.00;1.00
13245;DHT22;6689;53.400;12.486;2022-07-11T10:25:51;25.00;99.90
13245;DHT22;6689;53.400;12.486;2022-07-11T10:28:32;25.00;99.90
13245;DHT22;6689;53.400;12.486;2022-07-11T10:31:18;25.40;1.00
13245;DHT22;6689;53.400;12.486;2022-07-11T10:34:11;25.50;99.90
13245;DHT22;6689;53.400;12.486;2022-07-11T10:36:43;25.40;1.00
13245;DHT22;6689;53.400;12.486;2022-07-11T10:39:17;25.50;1.00
13245;DHT22;6689;53.400;12.486;2022-07-11T10:41:55;25.50;1.00
13245;DHT22;6689;53.400;12.486;2022-07-11T10:47:34;25.70;1.00
13245;DHT22;6689;53.400;12.486;2022-07-11T10:50:19;25.90;99.90
13245;DHT22;6689;53.400;12.486;2022-07-11T10:53:07;25.50;99.90
13245;DHT22;6689;53.400;12.486;2022-07-11T10:55:42;25.90;1.00
13245;DHT22;6689;53.400;12.486;2022-07-11T10:58:23;25.70;1.00
13245;DHT22;6689;53.400;12.486;2022-07-11T11:01:08;25.60;99.90
13245;DHT22;6689;53.400;12.486;2022-07-11T11:03:42;26.00;99.90
13245;DHT22;6689;53.400;12.486;2022-07-11T11:06:12;26.20;1.00
13245;DHT22;6689;53.400;12.486;2022-07-11T11:08:46;26.60;1.40
13245;DHT22;6689;53.400;12.486;2022-07-11T11:11:38;26.40;99.90
13245;DHT22;6689;53.400;12.486;2022-07-11T11:14:22;26.30;99.90
13245;DHT22;6689;53.400;12.486;2022-07-11T11:16:52;26.20;99.90
13245;DHT22;6689;53.400;12.486;2022-07-11T11:19:50;26.50;99.90
13245;DHT22;6689;53.400;12.486;2022-07-11T11:22:21;26.60;99.90
13245;DHT22;6689;53.400;12.486;2022-07-11T11:24:51;26.80;99.90
13245;DHT22;6689;53.400;12.486;2022-07-11T11:27:25;26.90;99.90
13245;DHT22;6689;53.400;12.486;2022-07-11T11:29:55;27.20;99.90
13245;DHT22;6689;53.400;12.486;2022-07-11T11:32:30;27.10;99.90
13245;DHT22;6689;53.400;12.486;2022-07-11T11:35:02;26.50;99.90
13245;DHT22;6689;53.400;12.486;2022-07-11T11:37:33;26.50;99.90
13245;DHT22;6689;53.400;12.486;2022-07-11T11:40:16;26.30;99.90
13245;DHT22;6689;53.400;12.486;2022-07-11T11:42:46;26.30;99.90
13245;DHT22;6689;53.400;12.486;2022-07-11T11:45:19;26.40;99.90
13245;DHT22;6689;53.400;12.486;2022-07-11T11:47:48;26.60;99.90
13245;DHT22;6689;53.400;12.486;2022-07-11T11:50:19;26.80;99.90
13245;DHT22;6689;53.400;12.486;2022-07-11T11:52:50;26.30;99.90
13245;DHT22;6689;53.400;12.486;2022-07-11T11:55:23;26.60;99.90
13245;DHT22;6689;53.400;12.486;2022-07-11T11:57:53;26.50;99.90
13245;DHT22;6689;53.400;12.486;2022-07-11T12:00:24;26.90;99.90
13245;DHT22;6689;53.400;12.486;2022-07-11T12:02:56;27.10;99.90
13245;DHT22;6689;53.400;12.486;2022-07-11T12:05:26;27.30;99.90
13245;DHT22;6689;53.400;12.486;2022-07-11T12:07:59;27.50;99.90
13245;DHT22;6689;53.400;12.486;2022-07-11T12:10:27;27.30;99.90
13245;DHT22;6689;53.400;12.486;2022-07-11T12:13:03;27.70;99.90
13245;DHT22;6689;53.400;12.486;2022-07-11T12:15:37;27.80;99.90
13245;DHT22;6689;53.400;12.486;2022-07-11T12:18:19;28.10;99.90
13245;DHT22;6689;53.400;12.486;2022-07-11T12:20:54;28.40;99.90
13245;DHT22;6689;53.400;12.486;2022-07-11T12:23:27;28.40;99.90
13245;DHT22;6689;53.400;12.486;2022-07-11T12:25:57;28.10;99.90
13245;DHT22;6689;53.400;12.486;2022-07-11T12:28:30;27.80;99.90
13245;DHT22;6689;53.400;12.486;2022-07-11T12:30:59;28.00;99.90
13245;DHT22;6689;53.400;12.486;2022-07-11T12:33:30;28.20;99.90
13245;DHT22;6689;53.400;12.486;2022-07-11T12:36:01;28.40;99.90
13245;DHT22;6689;53.400;12.486;2022-07-11T12:38:48;28.50;99.90
13245;DHT22;6689;53.400;12.486;2022-07-11T12:41:20;28.60;99.90
13245;DHT22;6689;53.400;12.486;2022-07-11T12:43:57;28.30;99.90
13245;DHT22;6689;53.400;12.486;2022-07-11T12:46:43;27.90;99.90
13245;DHT22;6689;53.400;12.486;2022-07-11T12:49:13;28.20;99.90
13245;DHT22;6689;53.400;12.486;2022-07-11T12:51:42;28.10;99.90
13245;DHT22;6689;53.400;12.486;2022-07-11T12:54:13;28.40;99.90
13245;DHT22;6689;53.400;12.486;2022-07-11T12:56:52;28.40;99.90
13245;DHT22;6689;53.400;12.486;2022-07-11T12:59:26;27.90;99.90
13245;DHT22;6689;53.400;12.486;2022-07-11T13:02:01;28.20;99.90
13245;DHT22;6689;53.400;12.486;2022-07-11T13:04:35;28.40;99.90
13245;DHT22;6689;53.400;12.486;2022-07-11T13:07:23;28.40;99.90
13245;DHT22;6689;53.400;12.486;2022-07-11T13:10:09;28.60;99.90
13245;DHT22;6689;53.400;12.486;2022-07-11T13:12:43;28.70;99.90
13245;DHT22;6689;53.400;12.486;2022-07-11T13:15:19;28.50;99.90
13245;DHT22;6689;53.400;12.486;2022-07-11T13:17:54;28.40;99.90
13245;DHT22;6689;53.400;12.486;2022-07-11T13:20:28;28.70;99.90
13245;DHT22;6689;53.400;12.486;2022-07-11T13:22:57;28.40;99.90
13245;DHT22;6689;53.400;12.486;2022-07-11T13:25:26;28.60;99.90
13245;DHT22;6689;53.400;12.486;2022-07-11T13:27:56;28.00;99.90
13245;DHT22;6689;53.400;12.486;2022-07-11T13:30:28;28.00;99.90
13245;DHT22;6689;53.400;12.486;2022-07-11T13:32:58;27.90;99.90
13245;DHT22;6689;53.400;12.486;2022-07-11T13:35:27;28.40;99.90
13245;DHT22;6689;53.400;12.486;2022-07-11T13:37:55;28.20;99.90
13245;DHT22;6689;53.400;12.486;2022-07-11T13:40:31;28.00;99.90
13245;DHT22;6689;53.400;12.486;2022-07-11T13:42:59;28.10;99.90
13245;DHT22;6689;53.400;12.486;2022-07-11T13:45:30;28.00;99.90
13245;DHT22;6689;53.400;12.486;2022-07-11T13:48:04;28.20;99.90
13245;DHT22;6689;53.400;12.486;2022-07-11T13:50:34;28.30;99.90
13245;DHT22;6689;53.400;12.486;2022-07-11T13:53:03;28.60;99.90
13245;DHT22;6689;53.400;12.486;2022-07-11T13:55:33;28.50;99.90
13245;DHT22;6689;53.400;12.486;2022-07-11T13:58:18;28.80;99.90
13245;DHT22;6689;53.400;12.486;2022-07-11T14:00:58;28.80;99.90
13245;DHT22;6689;53.400;12.486;2022-07-11T14:03:33;28.90;99.90
13245;DHT22;6689;53.400;12.486;2022-07-11T14:06:02;28.80;99.90
13245;DHT22;6689;53.400;12.486;2022-07-11T14:08:29;28.70;99.90
13245;DHT22;6689;53.400;12.486;2022-07-11T14:11:02;28.50;99.90
13245;DHT22;6689;53.400;12.486;2022-07-11T14:13:30;28.30;99.90
13245;DHT22;6689;53.400;12.486;2022-07-11T14:16:03;27.90;99.90
13245;DHT22;6689;53.400;12.486;2022-07-11T14:18:33;28.00;99.90
13245;DHT22;6689;53.400;12.486;2022-07-11T14:21:04;27.90;99.90
13245;DHT22;6689;53.400;12.486;2022-07-11T14:23:33;27.70;99.90
13245;DHT22;6689;53.400;12.486;2022-07-11T14:26:02;28.00;99.90
13245;DHT22;6689;53.400;12.486;2022-07-11T14:28:33;27.80;99.90
13245;DHT22;6689;53.400;12.486;2022-07-11T14:31:05;28.00;99.90
13245;DHT22;6689;53.400;12.486;2022-07-11T14:33:38;27.80;99.90
13245;DHT22;6689;53.400;12.486;2022-07-11T14:36:08;27.60;99.90
13245;DHT22;6689;53.400;12.486;2022-07-11T14:38:39;27.50;99.90
13245;DHT22;6689;53.400;12.486;2022-07-11T14:41:08;27.70;99.90
13245;DHT22;6689;53.400;12.486;2022-07-11T14:43:38;27.90;99.90
13245;DHT22;6689;53.400;12.486;2022-07-11T14:46:07;28.00;99.90
13245;DHT22;6689;53.400;12.486;2022-07-11T14:48:34;28.10;99.90
13245;DHT22;6689;53.400;12.486;2022-07-11T14:51:04;28.10;99.90
13245;DHT22;6689;53.400;12.486;2022-07-11T14:53:33;28.00;99.90
13245;DHT22;6689;53.400;12.486;2022-07-11T14:56:04;27.90;99.90
13245;DHT22;6689;53.400;12.486;2022-07-11T14:58:35;27.90;99.90
13245;DHT22;6689;53.400;12.486;2022-07-11T15:01:09;27.60;99.90
13245;DHT22;6689;53.400;12.486;2022-07-11T15:03:38;27.60;99.90
13245;DHT22;6689;53.400;12.486;2022-07-11T15:06:12;27.70;99.90
13245;DHT22;6689;53.400;12.486;2022-07-11T15:08:42;27.80;99.90
13245;DHT22;6689;53.400;12.486;2022-07-11T15:11:33;27.70;99.90
13245;DHT22;6689;53.400;12.486;2022-07-11T15:14:18;27.60;99.90
13245;DHT22;6689;53.400;12.486;2022-07-11T15:16:52;27.80;99.90
13245;DHT22;6689;53.400;12.486;2022-07-11T15:19:20;27.60;99.90
13245;DHT22;6689;53.400;12.486;2022-07-11T15:21:50;27.60;99.90
13245;DHT22;6689;53.400;12.486;2022-07-11T15:24:20;27.70;99.90
13245;DHT22;6689;53.400;12.486;2022-07-11T15:26:53;27.60;99.90
13245;DHT22;6689;53.400;12.486;2022-07-11T15:29:24;27.70;99.90
13245;DHT22;6689;53.400;12.486;2022-07-11T15:31:58;27.70;99.90
13245;DHT22;6689;53.400;12.486;2022-07-11T15:34:26;27.30;99.90
13245;DHT22;6689;53.400;12.486;2022-07-11T15:36:56;27.20;99.90
13245;DHT22;6689;53.400;12.486;2022-07-11T15:39:28;27.10;99.90
13245;DHT22;6689;53.400;12.486;2022-07-11T15:41:56;27.30;99.90
13245;DHT22;6689;53.400;12.486;2022-07-11T15:44:25;27.10;99.90
13245;DHT22;6689;53.400;12.486;2022-07-11T15:47:01;27.30;99.90
13245;DHT22;6689;53.400;12.486;2022-07-11T15:49:37;27.20;99.90
13245;DHT22;6689;53.400;12.486;2022-07-11T15:52:11;27.10;99.90
13245;DHT22;6689;53.400;12.486;2022-07-11T15:54:44;27.20;99.90
13245;DHT22;6689;53.400;12.486;2022-07-11T15:57:14;27.30;99.90
13245;DHT22;6689;53.400;12.486;2022-07-11T15:59:46;27.10;99.90
13245;DHT22;6689;53.400;12.486;2022-07-11T16:02:19;27.20;99.90
13245;DHT22;6689;53.400;12.486;2022-07-11T16:04:45;27.10;99.90
13245;DHT22;6689;53.400;12.486;2022-07-11T16:07:15;27.20;99.90
13245;DHT22;6689;53.400;12.486;2022-07-11T16:09:52;26.80;99.90
13245;DHT22;6689;53.400;12.486;2022-07-11T16:12:22;26.50;99.90